Latest Coastal Weather Observations for Hobart

IDT60701

Issued at 5:32 am EST Friday 1 July 2016 (issued every 10 minutes, with the page automatically refreshed every 10 minutes)

About coastal observations | Map of coastal stations | Coastal observations for TAS | Marine services | Other Formats
Station Details ID: 094029 Name: HOBART (ELLERSLIE ROAD) Lat: -42.89 Lon: 147.33 Height: 50.5 m
Data from the previous 72 hours. | See also: Recent months at Hobart
Date/Time
EST
Temp
°C
Wind Pressure Rain since
9am
mm
Weather Cloud Vis
km
Sea
Height
m
Swell
Dir  Spd
kts
Gust
kts
hPa Trend Height
m
Period
s
Dir
01/05:30am 5.4 WSW 5 10 1009.5 - 0.0 - - - - - - -
01/05:00am 5.9 SW 5 7 1008.7 - 0.0 - - - - - - -
01/04:30am 5.5 NW 3 6 1008.4 - 0.0 - - - - - - -
01/04:00am 6.1 WSW 4 6 1007.9 - 0.0 - - - - - - -
01/03:30am 5.8 W 4 6 1007.8 - 0.0 - - - - - - -
01/03:00am 6.3 CALM 0 1 1007.7 - 0.0 - - - - - - -
01/02:30am 6.2 W 3 5 1007.3 - 0.0 - - - - - - -
01/02:00am 6.1 NNW 5 7 1006.8 - 0.0 - - - - - - -
01/01:30am 6.5 W 6 7 1006.2 - 0.0 - - - - - - -
01/01:00am 7.1 WNW 3 4 1006.0 - 0.0 - - - - - - -
01/12:30am 6.8 W 5 7 1005.8 - 0.0 - - - - - - -
01/12:00am 7.0 NW 5 6 1005.5 - 0.0 - - - - - - -
 
Date/Time
EST
Temp
°C
Wind Pressure Rain since
9am
mm
Weather Cloud Vis
km
Sea
Height
m
Swell
Dir  Spd
kts
Gust
kts
hPa Trend Height
m
Period
s
Dir
30/11:30pm 7.4 NW 5 6 1005.2 - 0.0 - - - - - - -
30/11:00pm 7.4 WNW 3 5 1005.1 - 0.0 - - - - - - -
30/10:30pm 7.9 WSW 5 7 1004.7 - 0.0 - - - - - - -
30/10:00pm 8.4 WNW 3 5 1004.3 - 0.0 - - - - - - -
30/09:30pm 8.9 W 5 7 1004.0 - 0.0 - - - - - - -
30/09:00pm 10.0 WNW 6 10 1003.8 - 0.0 - - - - - - -
30/08:30pm 9.9 W 3 10 1003.6 - 0.0 - - - - - - -
30/08:00pm 9.8 SW 3 5 1003.3 - 0.0 - - - - - - -
30/07:30pm 10.2 NNW 5 6 1003.0 - 0.0 - - - - - - -
30/07:00pm 10.1 N 5 6 1002.7 - 0.0 - - - - - - -
30/06:30pm 10.0 WSW 5 7 1002.6 - 0.0 - - - - - - -
30/06:00pm 10.7 NE 3 5 1002.2 - 0.0 - - - - - - -
30/05:30pm 11.0 NNE 3 5 1001.8 - 0.0 - - - - - - -
30/05:00pm 11.2 NW 5 8 1001.3 - 0.0 - - - - - - -
30/04:30pm 12.0 NNW 9 15 1000.7 - 0.0 - - - - - - -
30/04:00pm 12.5 NNW 12 18 1000.1 - 0.0 - - - - - - -
30/03:30pm 12.5 N 12 18 1000.0 - 0.0 - - - - - - -
30/03:00pm 13.2 NNW 15 26 999.7 - 0.0 - - - - - - -
30/02:59pm 13.2 NNW 15 26 999.7 - 0.0 - - - - - - -
30/02:30pm 13.4 N 12 22 999.8 - 0.0 - - - - - - -
30/02:00pm 13.2 N 12 18 1000.3 - 0.0 - - - - - - -
30/01:30pm 12.8 N 10 15 1000.7 - 0.0 - - - - - - -
30/01:00pm 12.1 N 7 13 1001.1 - 0.0 - - - - - - -
30/12:30pm 11.7 N 9 15 1001.6 - 0.0 - - - - - - -
30/12:00pm 11.9 N 9 13 1002.4 - 0.0 - - - - - - -
30/11:30am 12.4 N 10 15 1003.0 - 0.0 - - - - - - -
30/11:00am 12.0 NNE 12 18 1003.5 - 0.0 - - - - - - -
30/10:30am 11.7 N 8 11 1004.3 - 0.0 - - - - - - -
30/10:00am 11.3 NNE 7 10 1004.7 - 0.0 - - - - - - -
30/09:30am 11.1 N 7 11 1004.9 - 0.0 - - - - - - -
30/09:00am 10.9 NNE 8 12 1005.3 - 0.0 - - - - - - -
30/08:30am 10.6 N 7 10 1005.4 - 0.0 - - - - - - -
30/08:00am 10.4 N 6 9 1005.8 - 0.0 - - - - - - -
30/07:30am 10.1 N 7 10 1006.2 - 0.0 - - - - - - -
30/07:00am 9.6 NNE 3 6 1006.4 - 0.0 - - - - - - -
30/06:30am 10.1 NNE 4 7 1007.0 - 0.0 - - - - - - -
30/06:00am 11.1 N 10 16 1007.4 - 0.0 - - - - - - -
30/05:30am 11.2 N 12 19 1007.4 - 0.0 - - - - - - -
30/05:00am 11.3 N 12 18 1007.9 - 0.0 - - - - - - -
30/04:35am 11.8 N 15 25 1008.2 - 0.0 - - - - - - -
30/04:30am 11.6 N 14 20 1008.2 - 0.0 - - - - - - -
30/04:00am 10.6 NNW 12 16 1008.3 - 0.0 - - - - - - -
30/03:30am 10.2 N 13 21 1008.8 - 0.0 - - - - - - -
30/03:00am 9.3 NNW 8 11 1009.8 - 0.0 - - - - - - -
30/02:30am 9.5 NNW 9 13 1010.3 - 0.0 - - - - - - -
30/02:00am 9.6 NNW 9 11 1010.8 - 0.0 - - - - - - -
30/01:30am 9.6 N 10 13 1011.2 - 0.0 - - - - - - -
30/01:00am 9.4 NNW 10 12 1011.8 - 0.0 - - - - - - -
30/12:30am 9.3 NNW 11 16 1012.5 - 0.0 - - - - - - -
30/12:00am 8.8 NNW 11 15 1013.2 - 0.0 - - - - - - -
 
Date/Time
EST
Temp
°C
Wind Pressure Rain since
9am
mm
Weather Cloud Vis
km
Sea
Height
m
Swell
Dir  Spd
kts
Gust
kts
hPa Trend Height
m
Period
s
Dir
29/11:30pm 9.0 NNW 12 17 1013.8 - 0.0 - - - - - - -
29/11:00pm 8.7 NNW 7 11 1014.3 - 0.0 - - - - - - -
29/10:30pm 8.5 NNW 8 11 1014.7 - 0.0 - - - - - - -
29/10:00pm 9.4 N 9 15 1015.1 - 0.0 - - - - - - -
29/09:30pm 8.9 NNW 10 13 1015.4 - 0.0 - - - - - - -
29/09:00pm 9.4 NW 12 15 1015.7 - 0.0 - - - - - - -
29/08:30pm 9.3 NNW 11 15 1016.2 - 0.0 - - - - - - -
29/08:00pm 9.2 NNW 7 9 1016.5 - 0.0 - - - - - - -
29/07:30pm 10.0 N 6 7 1016.6 - 0.0 - - - - - - -
29/07:00pm 10.5 NNW 9 11 1016.8 - 0.0 - - - - - - -
29/06:30pm 9.5 NNW 5 8 1017.0 - 0.0 - - - - - - -
29/06:00pm 10.7 N 5 6 1017.3 - 0.0 - - - - - - -
29/05:30pm 11.3 NNW 4 5 1017.4 - 0.0 - - - - - - -
29/05:00pm 12.3 NNW 7 9 1017.5 - 0.0 - - - - - - -
29/04:30pm 12.9 NW 7 10 1017.5 - 0.0 - - - - - - -
29/04:00pm 13.4 WNW 5 8 1017.6 - 0.0 - - - - - - -
29/03:30pm 13.6 NNW 8 13 1017.8 - 0.0 - - - - - - -
29/03:00pm 13.7 NW 9 13 1017.7 - 0.0 - - - - - - -
29/02:30pm 14.0 NW 8 14 1017.8 - 0.0 - - - - - - -
29/02:00pm 13.6 NNW 9 11 1018.0 - 0.0 - - - - - - -
29/01:30pm 13.0 NNW 10 13 1018.3 - 0.0 - - - - - - -
29/01:00pm 13.4 NNW 11 18 1018.5 - 0.0 - - - - - - -
29/12:30pm 14.1 NNW 8 13 1018.9 - 0.0 - - - - - - -
29/12:00pm 13.1 N 7 10 1019.1 - 0.0 - - - - - - -
29/11:30am 12.2 NNW 10 13 1019.7 - 0.0 - - - - - - -
29/11:00am 12.2 NNW 13 18 1020.0 - 0.0 - - - - - - -
29/10:30am 11.8 NW 7 15 1020.0 - 0.0 - - - - - - -
29/10:00am 11.5 NNW 8 15 1020.0 - 0.0 - - - - - - -
29/09:30am 11.1 NNW 9 13 1020.0 - 0.0 - - - - - - -
29/09:00am 10.9 N 7 9 1019.9 - 1.8 - - - - - - -
29/08:30am 10.2 NE 6 8 1019.6 - 1.8 - - - - - - -
29/08:00am 10.0 WNW 4 7 1019.3 - 1.8 - - - - - - -
29/07:30am 10.3 SW 4 7 1019.2 - 1.8 - - - - - - -
29/07:00am 10.4 NW 6 9 1018.7 - 1.8 - - - - - - -
29/06:30am 10.4 NW 11 17 1018.0 - 1.8 - - - - - - -
29/06:00am 10.3 NNW 11 14 1017.6 - 1.8 Recent precip. - - - - - -
29/05:30am 10.2 NNW 13 18 1017.0 - 1.8 - - - - - - -
29/05:00am 10.4 NNW 10 13 1017.1 - 1.6 - - - - - - -
29/04:30am 10.5 NNE 3 6 1017.1 - 1.6 - - - - - - -
29/04:00am 10.8 SSW 4 7 1017.2 - 1.2 - - - - - - -
29/03:30am 12.4 W 7 11 1016.4 - 1.0 - - - - - - -
29/03:00am 12.7 NNW 8 13 1016.0 - 1.0 - - - - - - -
29/02:30am 12.5 N 7 11 1015.7 - 1.0 - - - - - - -
29/02:00am 12.7 N 9 13 1015.6 - 1.0 - - - - - - -
29/01:30am 12.5 N 9 12 1015.4 - 1.0 - - - - - - -
29/01:00am 12.4 N 9 15 1015.3 - 1.0 - - - - - - -
29/12:30am 12.4 N 8 12 1015.2 - 1.0 - - - - - - -
29/12:00am 12.4 N 8 13 1015.1 - 1.0 - - - - - - -
 
Date/Time
EST
Temp
°C
Wind Pressure Rain since
9am
mm
Weather Cloud Vis
km
Sea
Height
m
Swell
Dir  Spd
kts
Gust
kts
hPa Trend Height
m
Period
s
Dir
28/11:30pm 12.6 N 10 17 1015.2 - 1.0 - - - - - - -
28/11:00pm 12.2 N 13 21 1015.1 - 1.0 - - - - - - -
28/10:30pm 12.2 NNW 11 15 1015.3 - 1.0 - - - - - - -
28/10:00pm 11.8 NNW 11 15 1014.9 - 1.0 - - - - - - -
28/09:30pm 11.9 NNW 12 20 1015.2 - 1.0 - - - - - - -
28/09:00pm 11.6 NNE 9 13 1015.2 - 1.0 Recent precip. - - - - - -
28/08:30pm 11.8 NNE 6 8 1015.2 - 0.6 - - - - - - -
28/08:00pm 11.8 N 8 12 1015.2 - 0.6 - - - - - - -
28/07:30pm 11.6 NNW 5 7 1015.0 - 0.4 - - - - - - -
28/07:00pm 12.3 NNW 8 12 1014.9 - 0.2 - - - - - - -
28/06:30pm 12.3 NNW 9 14 1014.4 - 0.2 - - - - - - -
28/06:00pm 12.4 NW 11 16 1014.5 - 0.0 - - - - - - -
28/05:30pm 13.4 NW 11 16 1014.2 - 0.0 - - - - - - -
28/05:00pm 13.5 NNW 10 14 1014.1 - 0.0 - - - - - - -
28/04:30pm 14.0 NW 10 14 1013.9 - 0.0 - - - - - - -
28/04:00pm 14.9 NW 9 15 1013.6 - 0.0 - - - - - - -
28/03:30pm 15.1 NNW 8 10 1013.6 - 0.0 - - - - - - -
28/03:00pm 15.2 NNW 7 13 1013.4 - 0.0 - - - - - - -
28/02:30pm 15.0 NNW 13 21 1013.1 - 0.0 - - - - - - -
28/02:00pm 15.4 NNW 9 17 1012.8 - 0.0 - - - - - - -
28/01:30pm 15.0 NNW 12 19 1013.0 - 0.0 - - - - - - -
28/01:00pm 15.3 NW 13 21 1012.8 - 0.0 - - - - - - -
28/12:30pm 14.6 NW 14 21 1012.8 - 0.0 - - - - - - -
28/12:00pm 13.3 NW 11 17 1013.1 - 0.0 - - - - - - -
28/11:30am 13.3 WNW 12 17 1013.4 - 0.0 - - - - - - -
28/11:12am 13.5 WNW 15 25 1013.7 - 0.0 - - - - - - -
28/11:00am 13.0 NW 16 25 1013.6 - 0.0 - - - - - - -
28/10:30am 12.3 NW 12 21 1013.6 - 0.0 - - - - - - -
28/10:00am 11.3 NNW 10 17 1013.6 - 0.0 - - - - - - -
28/09:30am 11.1 NNW 9 14 1013.5 - 0.0 - - - - - - -
28/09:00am 12.1 NW 11 17 1012.9 - 0.0 - - - - - - -
28/08:30am 11.4 NW 13 18 1012.7 - 0.0 - - - - - - -
28/08:00am 11.0 NW 11 18 1012.4 - 0.0 - - - - - - -
28/07:30am 11.0 WNW 15 23 1012.1 - 0.0 - - - - - - -
28/07:00am 10.9 NW 15 21 1012.1 - 0.0 - - - - - - -
28/06:30am 11.1 WNW 16 22 1011.8 - 0.0 - - - - - - -
28/06:00am 11.1 WNW 17 25 1011.2 - 0.0 - - - - - - -

Other Formats:

Comma delimited format used in spreadsheet applications
http://www.bom.gov.au/fwo/IDT60701/IDT60701.94970.axf

JavaScript Object Notation format (JSON) in row-major order
http://www.bom.gov.au/fwo/IDT60701/IDT60701.94970.json